createdAt,value
2022-10-15T00:00:53.288Z,12.04
2022-10-15T00:03:21.415Z,12.05
2022-10-15T00:05:49.367Z,12.06
2022-10-15T00:08:17.381Z,12.07
2022-10-15T00:10:45.342Z,12.13
2022-10-15T00:13:13.301Z,12.13
2022-10-15T00:15:43.102Z,12.14
2022-10-15T00:18:11.260Z,12.18
2022-10-15T00:20:42.628Z,12.16
2022-10-15T00:23:10.571Z,12.16
2022-10-15T00:25:38.549Z,12.19
2022-10-15T00:28:06.656Z,12.22
2022-10-15T00:30:34.883Z,12.22
2022-10-15T00:33:04.231Z,12.22
2022-10-15T00:35:32.233Z,12.21
2022-10-15T00:38:00.150Z,12.25
2022-10-15T00:40:28.090Z,12.24
2022-10-15T00:42:56.043Z,12.26
2022-10-15T00:45:24.250Z,12.29
2022-10-15T00:47:54.070Z,12.24
2022-10-15T00:50:26.168Z,12.30
2022-10-15T00:53:02.200Z,12.32
2022-10-15T00:55:32.442Z,12.33
2022-10-15T00:58:04.111Z,12.36
2022-10-15T01:00:32.415Z,12.38
2022-10-15T01:03:00.701Z,12.36
2022-10-15T01:05:30.234Z,12.39
2022-10-15T01:07:58.271Z,12.39
2022-10-15T01:10:33.705Z,12.40
2022-10-15T01:13:13.325Z,12.41
2022-10-15T01:15:49.700Z,12.45
2022-10-15T01:18:22.101Z,12.46
2022-10-15T01:21:01.379Z,12.44
2022-10-15T01:24:08.084Z,12.43
2022-10-15T01:27:10.804Z,12.43
2022-10-15T01:30:00.681Z,12.42
2022-10-15T01:32:35.789Z,12.43
2022-10-15T01:35:10.732Z,12.42
2022-10-15T01:37:42.567Z,12.40
2022-10-15T01:40:16.783Z,12.40
2022-10-15T01:42:49.714Z,12.40
2022-10-15T01:45:25.370Z,12.31
2022-10-15T01:47:57.485Z,12.36
2022-10-15T01:50:28.873Z,12.31
2022-10-15T01:52:58.347Z,12.32
2022-10-15T01:55:27.705Z,12.31
2022-10-15T01:57:58.914Z,12.29
2022-10-15T02:00:26.947Z,12.30
2022-10-15T02:03:00.729Z,12.28
2022-10-15T02:05:34.457Z,12.27
2022-10-15T02:08:12.704Z,12.27
2022-10-15T02:10:49.462Z,12.24
2022-10-15T02:13:33.557Z,12.22
2022-10-15T02:16:08.023Z,12.18
2022-10-15T02:18:42.599Z,12.11
2022-10-15T02:21:15.701Z,12.12
2022-10-15T02:23:48.776Z,12.09
2022-10-15T02:26:18.060Z,12.07
2022-10-15T02:28:51.857Z,12.05
2022-10-15T02:31:22.739Z,12.02
2022-10-15T02:33:54.516Z,12.01
2022-10-15T02:36:23.032Z,11.97
2022-10-15T02:38:53.032Z,12.00
2022-10-15T02:41:21.429Z,12.01
2022-10-15T02:43:49.644Z,12.01
2022-10-15T02:46:19.729Z,11.98
2022-10-15T02:48:47.753Z,11.98
2022-10-15T02:51:17.030Z,11.98
2022-10-15T02:53:45.017Z,11.98
2022-10-15T02:56:12.991Z,11.96
2022-10-15T02:58:40.933Z,11.95
2022-10-15T03:01:08.934Z,11.91
2022-10-15T03:03:37.023Z,11.89
2022-10-15T03:06:06.053Z,11.88
2022-10-15T03:08:35.481Z,11.85
2022-10-15T03:11:03.767Z,11.82
2022-10-15T03:13:31.708Z,11.77
2022-10-15T03:15:59.671Z,11.77
2022-10-15T03:18:27.666Z,11.73
2022-10-15T03:20:55.845Z,11.65
2022-10-15T03:23:24.098Z,11.59
2022-10-15T03:25:54.242Z,11.54
2022-10-15T03:28:22.724Z,11.51
2022-10-15T03:30:50.694Z,11.49
2022-10-15T03:33:20.798Z,11.47
2022-10-15T03:35:51.870Z,11.50
2022-10-15T03:38:19.833Z,11.45
2022-10-15T03:40:48.047Z,11.46
2022-10-15T03:43:17.332Z,11.44
2022-10-15T03:45:45.324Z,11.40
2022-10-15T03:48:13.318Z,11.36
2022-10-15T03:50:41.291Z,11.35
2022-10-15T03:53:09.314Z,11.35
2022-10-15T03:55:37.296Z,11.34
2022-10-15T03:58:05.226Z,11.32
2022-10-15T04:00:34.543Z,11.25
2022-10-15T04:03:02.485Z,11.20
2022-10-15T04:05:31.403Z,11.15
2022-10-15T04:07:59.358Z,11.09
2022-10-15T04:10:27.615Z,10.95
2022-10-15T04:12:55.582Z,11.03
2022-10-15T04:15:23.505Z,11.02
2022-10-15T04:17:55.149Z,11.01
2022-10-15T04:20:23.101Z,10.98
2022-10-15T04:22:51.052Z,10.96
2022-10-15T04:25:19.112Z,10.95
2022-10-15T04:27:47.088Z,10.95
2022-10-15T04:30:15.262Z,10.99
2022-10-15T04:32:43.543Z,10.99
2022-10-15T04:35:13.030Z,11.00
2022-10-15T04:37:40.945Z,10.98
2022-10-15T04:40:10.385Z,11.00
2022-10-15T04:42:38.348Z,10.98
2022-10-15T04:45:08.213Z,10.90
2022-10-15T04:47:36.197Z,10.98
2022-10-15T04:50:04.962Z,10.93
2022-10-15T04:52:35.288Z,10.98
2022-10-15T04:57:32.858Z,11.02
2022-10-15T05:00:00.890Z,11.02
2022-10-15T05:02:29.160Z,11.05
2022-10-15T05:04:57.198Z,11.05
2022-10-15T05:07:25.566Z,11.05
2022-10-15T05:09:55.124Z,11.06
2022-10-15T05:12:23.110Z,11.05
2022-10-15T05:14:51.139Z,10.94
2022-10-15T05:17:19.124Z,11.08
2022-10-15T05:19:47.120Z,11.10
2022-10-15T05:22:15.093Z,11.11
2022-10-15T05:24:43.099Z,11.11
2022-10-15T05:27:12.597Z,11.12
2022-10-15T05:29:40.541Z,11.10
2022-10-15T05:32:08.677Z,11.09
2022-10-15T05:34:36.679Z,11.10
2022-10-15T05:37:04.612Z,11.10
2022-10-15T05:39:32.611Z,11.12
2022-10-15T05:42:00.582Z,11.14
2022-10-15T05:44:29.911Z,11.16
2022-10-15T05:46:57.876Z,11.15
2022-10-15T05:49:25.936Z,11.14
2022-10-15T05:54:26.764Z,11.14
2022-10-15T05:56:54.735Z,11.15
2022-10-15T05:59:22.685Z,11.15
2022-10-15T06:01:52.095Z,11.19
2022-10-15T06:04:20.117Z,11.13
2022-10-15T06:06:48.111Z,11.15
2022-10-15T06:09:16.058Z,11.18
2022-10-15T06:11:44.076Z,11.15
2022-10-15T06:14:12.235Z,11.17
2022-10-15T06:16:40.187Z,11.18
2022-10-15T06:19:09.673Z,11.16
2022-10-15T06:21:37.648Z,11.17
2022-10-15T06:24:09.173Z,11.17
2022-10-15T06:26:38.258Z,11.15
2022-10-15T06:29:06.227Z,11.15
2022-10-15T06:31:34.201Z,11.13
2022-10-15T06:34:02.150Z,11.15
2022-10-15T06:36:31.503Z,11.16
2022-10-15T06:38:59.494Z,11.17
2022-10-15T06:41:27.467Z,11.21
2022-10-15T06:43:55.441Z,11.18
2022-10-15T06:46:23.378Z,11.21
2022-10-15T06:48:51.859Z,11.21
2022-10-15T06:51:19.935Z,11.21
2022-10-15T06:53:49.293Z,11.22
2022-10-15T06:56:17.365Z,11.25
2022-10-15T06:58:45.377Z,11.18
2022-10-15T07:01:13.372Z,11.24
2022-10-15T07:03:41.792Z,11.25
2022-10-15T07:06:10.587Z,11.26
2022-10-15T07:08:38.615Z,11.24
2022-10-15T07:11:09.887Z,11.29
2022-10-15T07:13:38.399Z,11.27
2022-10-15T07:16:07.239Z,11.30
2022-10-15T07:18:35.749Z,11.30
2022-10-15T07:21:03.862Z,11.30
2022-10-15T07:23:32.043Z,11.36
2022-10-15T07:26:00.783Z,11.38
2022-10-15T07:28:30.205Z,11.38
2022-10-15T07:31:02.466Z,11.42
2022-10-15T07:33:30.527Z,11.44
2022-10-15T07:35:58.521Z,11.44
2022-10-15T07:38:26.768Z,11.53
2022-10-15T07:40:59.068Z,11.55
2022-10-15T07:43:27.425Z,11.62
2022-10-15T07:45:56.707Z,11.61
2022-10-15T07:48:25.093Z,11.65
2022-10-15T07:50:55.778Z,11.66
2022-10-15T07:53:23.865Z,11.76
2022-10-15T07:55:51.839Z,11.81
2022-10-15T07:58:19.838Z,11.88
2022-10-15T08:00:47.796Z,11.89
2022-10-15T08:03:17.133Z,11.84
2022-10-15T08:05:45.142Z,11.87
2022-10-15T08:08:13.108Z,11.96
2022-10-15T08:10:41.101Z,11.94
2022-10-15T08:13:09.185Z,12.02
2022-10-15T08:15:40.124Z,12.07
2022-10-15T08:18:10.017Z,12.10
2022-10-15T08:20:39.789Z,12.11
2022-10-15T08:23:15.965Z,12.16
2022-10-15T08:25:44.199Z,12.08
2022-10-15T08:28:12.147Z,12.03
2022-10-15T08:30:40.381Z,12.08
2022-10-15T08:33:08.355Z,12.12
2022-10-15T08:35:39.103Z,12.11
2022-10-15T08:38:08.536Z,12.14
2022-10-15T08:40:36.888Z,12.16
2022-10-15T08:43:06.240Z,12.17
2022-10-15T08:45:45.005Z,12.19
2022-10-15T08:48:16.504Z,12.19
2022-10-15T08:50:51.775Z,12.25
2022-10-15T08:53:24.767Z,12.29
2022-10-15T08:55:56.686Z,12.30
2022-10-15T08:58:30.301Z,12.32
2022-10-15T09:01:02.492Z,12.37
2022-10-15T09:03:39.950Z,12.45
2022-10-15T09:06:16.110Z,12.51
2022-10-15T09:08:58.055Z,12.55
2022-10-15T09:11:37.972Z,12.43
2022-10-15T09:14:10.958Z,12.38
2022-10-15T09:16:40.940Z,12.40
2022-10-15T09:19:17.150Z,12.50
2022-10-15T09:21:46.687Z,12.60
2022-10-15T09:24:22.359Z,12.63
2022-10-15T09:27:02.044Z,12.88
2022-10-15T09:29:35.400Z,13.04
2022-10-15T09:32:14.458Z,13.12
2022-10-15T09:34:48.201Z,13.13
2022-10-15T09:37:22.429Z,13.14
2022-10-15T09:40:11.200Z,13.06
2022-10-15T09:42:42.264Z,13.01
2022-10-15T09:45:13.514Z,13.00
2022-10-15T09:47:43.396Z,12.96
2022-10-15T09:50:14.290Z,12.95
2022-10-15T09:52:59.569Z,12.96
2022-10-15T09:55:41.719Z,12.83
2022-10-15T09:58:16.412Z,13.05
2022-10-15T10:00:57.199Z,13.10
2022-10-15T10:03:27.418Z,13.14
2022-10-15T10:06:05.162Z,13.22
2022-10-15T10:08:36.593Z,13.26
2022-10-15T10:11:08.531Z,13.32
2022-10-15T10:13:41.304Z,13.40
2022-10-15T10:16:12.129Z,13.46
2022-10-15T10:18:40.632Z,13.50
2022-10-15T10:21:23.482Z,13.63
2022-10-15T10:23:51.478Z,13.79
2022-10-15T10:26:21.659Z,13.98
2022-10-15T10:28:56.768Z,14.10
2022-10-15T10:31:31.738Z,14.07
2022-10-15T10:34:02.493Z,13.86
2022-10-15T10:36:34.103Z,13.95
2022-10-15T10:39:05.616Z,14.01
2022-10-15T10:41:51.649Z,14.20
2022-10-15T10:44:28.460Z,14.30
2022-10-15T10:47:04.996Z,14.34
2022-10-15T10:49:34.026Z,14.35
2022-10-15T10:52:01.952Z,14.36
2022-10-15T10:54:31.181Z,14.32
2022-10-15T10:57:02.343Z,14.36
2022-10-15T10:59:35.533Z,14.34
2022-10-15T11:02:04.605Z,14.47
2022-10-15T11:04:35.858Z,14.50
2022-10-15T11:07:06.380Z,14.63
2022-10-15T11:09:51.021Z,14.70
2022-10-15T11:12:45.190Z,14.89
2022-10-15T11:15:25.582Z,14.92
2022-10-15T11:18:04.676Z,15.01
2022-10-15T11:20:56.868Z,15.27
2022-10-15T11:23:41.509Z,15.42
2022-10-15T11:26:36.951Z,15.46
2022-10-15T11:29:14.729Z,15.46
2022-10-15T11:32:02.455Z,15.40
2022-10-15T11:34:41.779Z,15.54
2022-10-15T11:37:24.324Z,15.68
2022-10-15T11:40:07.248Z,15.68
2022-10-15T11:42:40.474Z,15.72
2022-10-15T11:45:31.316Z,15.77
2022-10-15T11:48:06.184Z,15.86
2022-10-15T11:50:40.704Z,15.91
2022-10-15T11:53:31.497Z,16.14
2022-10-15T11:56:05.801Z,16.12
2022-10-15T11:58:38.920Z,16.07
2022-10-15T12:01:16.392Z,16.03
2022-10-15T12:03:50.396Z,16.02
2022-10-15T12:06:22.658Z,16.10
2022-10-15T12:08:53.438Z,16.24
2022-10-15T12:11:29.878Z,16.41
2022-10-15T12:14:03.579Z,16.65
2022-10-15T12:16:39.668Z,16.69
2022-10-15T12:19:17.069Z,16.72
2022-10-15T12:22:06.515Z,16.79
2022-10-15T12:24:54.959Z,16.63
2022-10-15T12:27:34.521Z,16.73
2022-10-15T12:30:24.865Z,16.68
2022-10-15T12:32:54.668Z,16.74
2022-10-15T12:35:37.725Z,16.81
2022-10-15T12:38:20.808Z,16.69
2022-10-15T12:40:57.837Z,16.82
2022-10-15T12:43:26.149Z,17.11
2022-10-15T12:45:57.282Z,17.21
2022-10-15T12:48:33.118Z,17.32
2022-10-15T12:51:40.911Z,17.16
2022-10-15T12:54:34.909Z,17.08
2022-10-15T12:57:04.839Z,17.77
2022-10-15T12:59:58.196Z,17.91
2022-10-15T13:02:39.190Z,18.11
2022-10-15T13:05:24.307Z,18.35
2022-10-15T13:07:58.481Z,18.32
2022-10-15T13:10:30.274Z,18.00
2022-10-15T13:13:02.137Z,17.46
2022-10-15T13:15:31.909Z,17.06
2022-10-15T13:18:06.070Z,16.92
2022-10-15T13:20:38.350Z,16.78
2022-10-15T13:23:29.958Z,16.49
2022-10-15T13:26:20.876Z,16.34
2022-10-15T13:28:49.913Z,16.18
2022-10-15T13:31:25.984Z,16.12
2022-10-15T13:34:01.426Z,16.12
2022-10-15T13:36:32.979Z,16.07
2022-10-15T13:39:04.797Z,16.04
2022-10-15T13:41:35.737Z,16.06
2022-10-15T13:44:04.594Z,16.09
2022-10-15T13:46:34.547Z,16.04
2022-10-15T13:49:04.242Z,16.04
2022-10-15T13:51:41.318Z,16.11
2022-10-15T13:54:11.737Z,16.07
2022-10-15T13:56:47.887Z,16.09
2022-10-15T13:59:20.209Z,16.25
2022-10-15T14:01:50.699Z,16.39
2022-10-15T14:04:21.077Z,16.50
2022-10-15T14:09:36.858Z,16.70
2022-10-15T14:12:09.581Z,16.67
2022-10-15T14:14:41.635Z,16.57
2022-10-15T14:17:14.352Z,16.60
2022-10-15T14:19:51.446Z,16.64
2022-10-15T14:22:29.264Z,16.57
2022-10-15T14:24:57.830Z,16.58
2022-10-15T14:27:27.713Z,16.55
2022-10-15T14:29:57.494Z,16.52
2022-10-15T14:32:27.570Z,16.47
2022-10-15T14:34:56.989Z,16.35
2022-10-15T14:37:43.497Z,16.14
2022-10-15T14:40:21.170Z,16.08
2022-10-15T14:43:01.555Z,16.06
2022-10-15T14:45:31.803Z,15.97
2022-10-15T14:48:02.364Z,15.94
2022-10-15T14:50:33.218Z,16.00
2022-10-15T14:53:08.275Z,16.05
2022-10-15T14:55:40.678Z,16.07
2022-10-15T14:58:10.229Z,16.01
2022-10-15T15:00:42.780Z,15.97
2022-10-15T15:03:16.284Z,15.84
2022-10-15T15:05:46.756Z,15.74
2022-10-15T15:08:16.895Z,15.64
2022-10-15T15:10:46.430Z,15.64
2022-10-15T15:13:19.766Z,15.56
2022-10-15T15:15:48.087Z,15.49
2022-10-15T15:18:16.437Z,15.40
2022-10-15T15:20:46.137Z,15.35
2022-10-15T15:23:19.118Z,15.29
2022-10-15T15:25:47.816Z,15.29
2022-10-15T15:28:17.747Z,15.31
2022-10-15T15:30:46.253Z,15.32
2022-10-15T15:33:15.787Z,15.32
2022-10-15T15:35:50.788Z,15.25
2022-10-15T15:38:21.633Z,15.20
2022-10-15T15:40:50.117Z,15.16
2022-10-15T15:43:19.871Z,15.11
2022-10-15T15:45:48.164Z,15.04
2022-10-15T15:48:16.999Z,14.99
2022-10-15T15:50:45.114Z,14.96
2022-10-15T15:53:13.734Z,14.92
2022-10-15T15:55:43.147Z,14.87
2022-10-15T15:58:11.136Z,14.87
2022-10-15T16:00:39.124Z,14.81
2022-10-15T16:03:08.718Z,14.78
2022-10-15T16:05:38.519Z,14.75
2022-10-15T16:08:06.588Z,14.74
2022-10-15T16:10:35.053Z,14.71
2022-10-15T16:13:04.650Z,14.66
2022-10-15T16:15:32.605Z,14.58
2022-10-15T16:18:00.551Z,14.46
2022-10-15T16:20:28.529Z,14.49
2022-10-15T16:22:56.514Z,14.46
2022-10-15T16:25:29.282Z,14.43
2022-10-15T16:28:02.112Z,14.42
2022-10-15T16:30:31.529Z,14.39
2022-10-15T16:32:59.513Z,14.36
2022-10-15T16:35:27.513Z,14.29
2022-10-15T16:37:56.279Z,14.25
2022-10-15T16:40:24.405Z,14.21
2022-10-15T16:42:52.412Z,14.17
2022-10-15T16:45:20.378Z,14.14
2022-10-15T16:47:50.036Z,14.10
2022-10-15T16:50:18.213Z,14.07
2022-10-15T16:52:46.225Z,14.03
2022-10-15T16:55:14.239Z,14.01
2022-10-15T16:57:42.353Z,13.97
2022-10-15T17:00:11.508Z,13.92
2022-10-15T17:02:39.587Z,13.89
2022-10-15T17:05:09.758Z,13.87
2022-10-15T17:07:37.712Z,13.84
2022-10-15T17:10:09.653Z,13.80
2022-10-15T17:12:40.358Z,13.77
2022-10-15T17:15:09.473Z,13.73
2022-10-15T17:17:37.440Z,13.74
2022-10-15T17:20:06.161Z,13.72
2022-10-15T17:22:35.852Z,13.71
2022-10-15T17:25:03.885Z,13.70
2022-10-15T17:27:31.794Z,13.69
2022-10-15T17:29:59.713Z,13.71
2022-10-15T17:32:27.863Z,13.71
2022-10-15T17:34:58.201Z,13.69
2022-10-15T17:37:28.284Z,13.71
2022-10-15T17:39:58.139Z,13.71
2022-10-15T17:42:26.708Z,13.70
2022-10-15T17:44:55.083Z,13.70
2022-10-15T17:47:23.273Z,13.70
2022-10-15T17:49:51.396Z,13.72
2022-10-15T17:52:19.342Z,13.72
2022-10-15T17:54:47.281Z,13.75
2022-10-15T17:57:16.587Z,13.73
2022-10-15T17:59:47.490Z,13.72
2022-10-15T18:02:18.362Z,13.70
2022-10-15T18:04:46.829Z,13.69
2022-10-15T18:07:17.490Z,13.70
2022-10-15T18:09:46.097Z,13.69
2022-10-15T18:12:14.071Z,13.66
2022-10-15T18:14:43.351Z,13.65
2022-10-15T18:17:11.929Z,13.66
2022-10-15T18:19:39.882Z,13.66
2022-10-15T18:22:07.864Z,13.66
2022-10-15T18:24:35.941Z,13.67
2022-10-15T18:27:03.929Z,13.66
2022-10-15T18:29:32.070Z,13.68
2022-10-15T18:32:01.430Z,13.67
2022-10-15T18:34:30.256Z,13.68
2022-10-15T18:36:58.347Z,13.69
2022-10-15T18:39:27.166Z,13.72
2022-10-15T18:41:55.215Z,13.72
2022-10-15T18:44:23.984Z,13.74
2022-10-15T18:46:52.778Z,13.65
2022-10-15T18:49:22.221Z,13.77
2022-10-15T18:51:51.803Z,13.84
2022-10-15T18:54:20.395Z,13.88
2022-10-15T18:56:48.629Z,13.91
2022-10-15T18:59:16.691Z,13.94
2022-10-15T19:01:44.931Z,13.99
2022-10-15T19:04:14.974Z,14.02
2022-10-15T19:06:46.822Z,14.03
2022-10-15T19:09:17.027Z,13.88
2022-10-15T19:11:47.260Z,13.99
2022-10-15T19:14:16.422Z,13.95
2022-10-15T19:16:44.883Z,13.92
2022-10-15T19:19:16.043Z,13.88
2022-10-15T19:21:45.834Z,13.83
2022-10-15T19:24:14.493Z,13.80
2022-10-15T19:26:42.868Z,13.77
2022-10-15T19:29:10.981Z,13.75
2022-10-15T19:31:41.260Z,13.80
2022-10-15T19:34:09.913Z,13.82
2022-10-15T19:36:40.704Z,13.80
2022-10-15T19:39:13.437Z,13.86
2022-10-15T19:41:43.040Z,13.84
2022-10-15T19:44:13.305Z,13.84
2022-10-15T19:46:41.864Z,13.81
2022-10-15T19:49:13.380Z,13.79
2022-10-15T19:51:41.568Z,13.77
2022-10-15T19:54:11.216Z,13.75
2022-10-15T19:56:39.211Z,13.72
2022-10-15T19:59:07.968Z,13.71
2022-10-15T20:01:37.652Z,13.72
2022-10-15T20:04:07.089Z,13.76
2022-10-15T20:06:36.564Z,13.77
2022-10-15T20:09:04.997Z,13.79
2022-10-15T20:11:34.808Z,13.80
2022-10-15T20:14:03.180Z,13.83
2022-10-15T20:16:33.080Z,13.85
2022-10-15T20:19:02.501Z,13.87
2022-10-15T20:21:30.467Z,13.87
2022-10-15T20:23:58.644Z,13.91
2022-10-15T20:26:26.644Z,13.91
2022-10-15T20:28:55.989Z,13.91
2022-10-15T20:31:28.500Z,13.94
2022-10-15T20:33:56.577Z,13.94
2022-10-15T20:36:27.230Z,13.94
2022-10-15T20:38:57.348Z,13.92
2022-10-15T20:41:25.427Z,13.91
2022-10-15T20:43:56.635Z,13.88
2022-10-15T20:46:28.688Z,13.91
2022-10-15T20:49:02.221Z,13.93
2022-10-15T20:51:33.931Z,13.93
2022-10-15T20:54:02.722Z,13.92
2022-10-15T20:56:30.857Z,13.81
2022-10-15T20:59:00.199Z,13.85
2022-10-15T21:01:28.324Z,13.86
2022-10-15T21:03:56.315Z,13.89
2022-10-15T21:06:24.256Z,13.89
2022-10-15T21:08:52.206Z,13.87
2022-10-15T21:11:20.405Z,13.89
2022-10-15T21:13:48.343Z,13.85
2022-10-15T21:16:17.860Z,13.81
2022-10-15T21:18:45.843Z,13.78
2022-10-15T21:21:15.539Z,13.68
2022-10-15T21:23:43.880Z,13.67
2022-10-15T21:26:13.720Z,13.60
2022-10-15T21:28:42.071Z,13.50
2022-10-15T21:31:12.577Z,13.54
2022-10-15T21:33:42.289Z,13.47
2022-10-15T21:36:11.752Z,13.45
2022-10-15T21:38:39.860Z,13.38
2022-10-15T21:41:07.964Z,13.36
2022-10-15T21:43:36.163Z,13.29
2022-10-15T21:46:09.037Z,13.21
2022-10-15T21:48:37.939Z,13.19
2022-10-15T21:51:11.525Z,13.17
2022-10-15T21:53:39.477Z,13.15
2022-10-15T21:56:08.091Z,13.10
2022-10-15T21:58:38.060Z,13.04
2022-10-15T22:01:13.587Z,13.03
2022-10-15T22:03:44.315Z,12.99
2022-10-15T22:06:14.512Z,12.97
2022-10-15T22:08:43.231Z,12.90
2022-10-15T22:11:13.062Z,12.86
2022-10-15T22:13:42.490Z,12.85
2022-10-15T22:16:11.702Z,12.84
2022-10-15T22:18:40.596Z,12.71
2022-10-15T22:21:15.045Z,12.77
2022-10-15T22:23:45.361Z,12.74
2022-10-15T22:26:13.898Z,12.73
2022-10-15T22:28:42.386Z,12.69
2022-10-15T22:31:12.643Z,12.68
2022-10-15T22:33:41.705Z,12.67
2022-10-15T22:36:14.741Z,12.65
2022-10-15T22:38:45.648Z,12.64
2022-10-15T22:41:14.482Z,12.61
2022-10-15T22:43:42.763Z,12.58
2022-10-15T22:46:10.776Z,12.57
2022-10-15T22:48:40.609Z,12.57
2022-10-15T22:51:11.731Z,12.49
2022-10-15T22:53:39.771Z,12.53
2022-10-15T22:56:12.514Z,12.50
2022-10-15T22:58:40.612Z,12.49
2022-10-15T23:01:10.984Z,12.47
2022-10-15T23:03:39.387Z,12.48
2022-10-15T23:06:08.060Z,12.46
2022-10-15T23:08:36.837Z,12.41
2022-10-15T23:11:10.400Z,12.45
2022-10-15T23:13:39.071Z,12.42
2022-10-15T23:16:09.655Z,12.40
2022-10-15T23:18:37.652Z,12.38
2022-10-15T23:21:07.814Z,12.33
2022-10-15T23:23:35.783Z,12.33
2022-10-15T23:26:03.780Z,12.33
2022-10-15T23:28:33.312Z,12.29
2022-10-15T23:31:01.413Z,12.29
2022-10-15T23:33:29.379Z,12.28
2022-10-15T23:35:59.035Z,12.27
2022-10-15T23:38:28.156Z,12.26
2022-10-15T23:41:03.084Z,12.22
2022-10-15T23:43:31.429Z,12.25
2022-10-15T23:46:01.529Z,12.24
2022-10-15T23:48:30.393Z,12.26
2022-10-15T23:51:02.420Z,12.27
2022-10-15T23:53:32.856Z,12.27
2022-10-15T23:56:02.489Z,12.28
2022-10-15T23:58:32.097Z,12.24
